createdAt,value
2023-02-09T00:01:26.821Z,-3.72
2023-02-09T00:03:53.637Z,-3.71
2023-02-09T00:06:21.816Z,-3.72
2023-02-09T00:08:48.345Z,-3.71
2023-02-09T00:11:20.142Z,-3.71
2023-02-09T00:13:46.795Z,-3.70
2023-02-09T00:16:13.786Z,-3.71
2023-02-09T00:18:40.509Z,-3.71
2023-02-09T00:21:10.721Z,-3.71
2023-02-09T00:23:39.565Z,-3.69
2023-02-09T00:26:09.720Z,-3.70
2023-02-09T00:28:36.472Z,-3.68
2023-02-09T00:31:10.864Z,-3.68
2023-02-09T00:33:40.557Z,-3.69
2023-02-09T00:36:11.437Z,-3.71
2023-02-09T00:38:38.021Z,-3.77
2023-02-09T00:41:04.789Z,-3.86
2023-02-09T00:43:32.110Z,-3.81
2023-02-09T00:45:58.597Z,-3.84
2023-02-09T00:48:25.553Z,-3.85
2023-02-09T00:50:52.892Z,-3.91
2023-02-09T00:53:21.386Z,-3.94
2023-02-09T00:55:49.253Z,-3.93
2023-02-09T00:58:17.112Z,-3.97
2023-02-09T01:00:44.552Z,-4.05
2023-02-09T01:03:12.019Z,-4.03
2023-02-09T01:05:40.143Z,-4.02
2023-02-09T01:08:06.722Z,-4.01
2023-02-09T01:10:33.281Z,-4.00
2023-02-09T01:12:59.887Z,-4.00
2023-02-09T01:15:28.921Z,-4.01
2023-02-09T01:17:55.377Z,-4.05
2023-02-09T01:20:22.019Z,-4.03
2023-02-09T01:22:48.439Z,-4.00
2023-02-09T01:25:14.911Z,-3.98
2023-02-09T01:27:42.365Z,-3.96
2023-02-09T01:30:09.758Z,-4.04
2023-02-09T01:32:37.189Z,-4.07
2023-02-09T01:35:03.829Z,-4.09
2023-02-09T01:37:30.372Z,-4.11
2023-02-09T01:39:56.839Z,-4.12
2023-02-09T01:42:23.479Z,-4.15
2023-02-09T01:44:49.986Z,-4.15
2023-02-09T01:47:19.120Z,-4.11
2023-02-09T01:49:49.889Z,-4.10
2023-02-09T01:52:21.071Z,-4.12
2023-02-09T01:54:56.810Z,-4.21
2023-02-09T01:57:37.225Z,-4.25
2023-02-09T02:00:10.982Z,-4.30
2023-02-09T02:02:47.844Z,-4.37
2023-02-09T02:05:15.273Z,-4.39
2023-02-09T02:08:19.549Z,-4.44
2023-02-09T02:10:46.439Z,-4.52
2023-02-09T02:13:13.119Z,-4.52
2023-02-09T02:15:59.745Z,-4.50
2023-02-09T02:18:38.623Z,-4.48
2023-02-09T02:21:33.771Z,-4.48
2023-02-09T02:24:06.332Z,-4.51
2023-02-09T02:26:48.859Z,-4.52
2023-02-09T02:29:36.895Z,-4.51
2023-02-09T02:32:26.314Z,-4.52
2023-02-09T02:35:08.537Z,-4.53
2023-02-09T02:38:19.772Z,-4.51
2023-02-09T02:41:03.769Z,-4.50
2023-02-09T02:43:43.354Z,-4.51
2023-02-09T02:46:20.671Z,-4.52
2023-02-09T02:48:59.432Z,-4.50
2023-02-09T02:51:42.239Z,-4.58
2023-02-09T02:54:15.670Z,-4.58
2023-02-09T02:56:50.958Z,-4.58
2023-02-09T02:59:22.959Z,-4.57
2023-02-09T03:02:06.306Z,-4.55
2023-02-09T03:04:35.491Z,-4.59
2023-02-09T03:07:05.549Z,-4.57
2023-02-09T03:09:32.058Z,-4.57
2023-02-09T03:12:15.448Z,-4.55
2023-02-09T03:14:49.493Z,-4.56
2023-02-09T03:17:29.036Z,-4.62
2023-02-09T03:20:02.407Z,-4.62
2023-02-09T03:22:36.849Z,-4.66
2023-02-09T03:25:12.751Z,-4.75
2023-02-09T03:27:55.517Z,-4.80
2023-02-09T03:30:23.433Z,-4.84
2023-02-09T03:32:56.111Z,-4.86
2023-02-09T03:35:26.326Z,-4.89
2023-02-09T03:37:52.815Z,-4.91
2023-02-09T03:40:19.765Z,-4.93
2023-02-09T03:42:46.343Z,-4.96
2023-02-09T03:45:12.979Z,-5.03
2023-02-09T03:47:39.387Z,-5.09
2023-02-09T03:50:07.345Z,-5.12
2023-02-09T03:52:33.974Z,-5.15
2023-02-09T03:55:00.345Z,-5.20
2023-02-09T03:57:26.795Z,-5.25
2023-02-09T03:59:53.180Z,-5.28
2023-02-09T04:02:19.648Z,-5.27
2023-02-09T04:04:46.142Z,-5.27
2023-02-09T04:07:13.866Z,-5.24
2023-02-09T04:09:40.422Z,-5.22
2023-02-09T04:12:07.019Z,-5.18
2023-02-09T04:14:33.417Z,-5.14
2023-02-09T04:16:59.833Z,-5.08
2023-02-09T04:19:26.277Z,-5.05
2023-02-09T04:21:52.661Z,-5.09
2023-02-09T04:24:26.023Z,-5.15
2023-02-09T04:26:52.441Z,-5.20
2023-02-09T04:29:18.885Z,-5.20
2023-02-09T04:31:45.390Z,-5.20
2023-02-09T04:34:11.818Z,-5.17
2023-02-09T04:36:38.230Z,-5.12
2023-02-09T04:39:04.629Z,-5.09
2023-02-09T04:41:31.035Z,-5.09
2023-02-09T04:43:57.498Z,-5.13
2023-02-09T04:46:23.979Z,-5.21
2023-02-09T04:48:50.456Z,-5.28
2023-02-09T04:51:16.917Z,-5.35
2023-02-09T04:53:43.361Z,-5.44
2023-02-09T04:56:15.119Z,-5.62
2023-02-09T04:59:00.770Z,-5.73
2023-02-09T05:01:27.425Z,-5.81
2023-02-09T05:03:53.941Z,-5.92
2023-02-09T05:06:20.966Z,-6.00
2023-02-09T05:08:48.562Z,-5.99
2023-02-09T05:11:15.561Z,-6.03
2023-02-09T05:13:42.425Z,-6.04
2023-02-09T05:16:13.362Z,-6.04
2023-02-09T05:18:39.991Z,-6.05
2023-02-09T05:21:06.549Z,-6.05
2023-02-09T05:23:33.527Z,-6.01
2023-02-09T05:26:00.204Z,-5.97
2023-02-09T05:28:26.748Z,-5.97
2023-02-09T05:30:56.171Z,-6.01
2023-02-09T05:33:24.409Z,-6.04
2023-02-09T05:35:52.335Z,-6.04
2023-02-09T05:38:19.217Z,-6.02
2023-02-09T05:40:45.652Z,-5.96
2023-02-09T05:43:12.249Z,-6.10
2023-02-09T05:45:39.017Z,-5.85
2023-02-09T05:48:05.563Z,-5.81
2023-02-09T05:50:32.112Z,-5.84
2023-02-09T05:52:59.691Z,-5.83
2023-02-09T05:55:26.216Z,-5.79
2023-02-09T05:57:52.624Z,-5.84
2023-02-09T06:00:19.367Z,-5.84
2023-02-09T06:02:45.873Z,-5.88
2023-02-09T06:05:12.468Z,-5.91
2023-02-09T06:07:38.911Z,-5.89
2023-02-09T06:10:05.473Z,-5.89
2023-02-09T06:12:31.851Z,-5.90
2023-02-09T06:14:58.226Z,-5.94
2023-02-09T06:17:24.689Z,-5.97
2023-02-09T06:19:51.110Z,-5.98
2023-02-09T06:22:17.549Z,-6.00
2023-02-09T06:24:43.936Z,-6.02
2023-02-09T06:27:11.787Z,-6.10
2023-02-09T06:29:38.157Z,-6.08
2023-02-09T06:32:04.877Z,-6.12
2023-02-09T06:34:31.329Z,-6.15
2023-02-09T06:36:57.783Z,-6.20
2023-02-09T06:39:24.398Z,-6.21
2023-02-09T06:41:51.854Z,-6.23
2023-02-09T06:44:18.801Z,-6.28
2023-02-09T06:46:45.241Z,-6.28
2023-02-09T06:49:11.631Z,-6.27
2023-02-09T06:51:38.241Z,-6.26
2023-02-09T06:54:04.851Z,-6.25
2023-02-09T06:56:31.309Z,-6.33
2023-02-09T06:58:57.877Z,-6.25
2023-02-09T07:01:24.409Z,-6.22
2023-02-09T07:03:50.883Z,-6.19
2023-02-09T07:06:19.194Z,-6.21
2023-02-09T07:08:46.403Z,-6.23
2023-02-09T07:11:15.680Z,-6.22
2023-02-09T07:13:42.663Z,-6.20
2023-02-09T07:16:11.287Z,-6.16
2023-02-09T07:18:38.527Z,-6.13
2023-02-09T07:21:08.534Z,-6.08
2023-02-09T07:23:35.384Z,-6.00
2023-02-09T07:26:07.009Z,-5.87
2023-02-09T07:28:35.408Z,-5.75
2023-02-09T07:31:04.875Z,-5.63
2023-02-09T07:33:31.895Z,-5.54
2023-02-09T07:35:58.575Z,-5.39
2023-02-09T07:38:25.262Z,-5.28
2023-02-09T07:40:51.811Z,-5.15
2023-02-09T07:43:18.192Z,-5.06
2023-02-09T07:45:44.833Z,-4.94
2023-02-09T07:48:11.725Z,-4.89
2023-02-09T07:50:38.339Z,-4.73
2023-02-09T07:53:04.750Z,-4.65
2023-02-09T07:55:31.342Z,-4.58
2023-02-09T07:57:57.800Z,-4.49
2023-02-09T08:00:25.465Z,-4.42
2023-02-09T08:02:52.533Z,-4.33
2023-02-09T08:05:37.282Z,-4.25
2023-02-09T08:08:03.746Z,-4.15
2023-02-09T08:10:30.212Z,-4.14
2023-02-09T08:13:02.516Z,-4.05
2023-02-09T08:15:34.649Z,-4.06
2023-02-09T08:18:04.620Z,-4.03
2023-02-09T08:20:32.143Z,-3.95
2023-02-09T08:23:18.507Z,-3.95
2023-02-09T08:25:45.129Z,-3.94
2023-02-09T08:28:11.921Z,-3.91
2023-02-09T08:30:38.347Z,-3.95
2023-02-09T08:33:04.748Z,-3.91
2023-02-09T08:35:31.526Z,-3.81
2023-02-09T08:38:03.157Z,-3.69
2023-02-09T08:40:30.740Z,-3.64
2023-02-09T08:42:57.158Z,-3.59
2023-02-09T08:45:24.459Z,-3.57
2023-02-09T08:47:50.974Z,-3.55
2023-02-09T08:50:17.410Z,-3.44
2023-02-09T08:52:43.922Z,-3.33
2023-02-09T08:55:10.464Z,-3.26
2023-02-09T08:57:44.015Z,-3.12
2023-02-09T09:00:11.940Z,-3.04
2023-02-09T09:02:38.353Z,-2.97
2023-02-09T09:05:05.054Z,-2.89
2023-02-09T09:07:31.586Z,-2.84
2023-02-09T09:09:57.976Z,-2.80
2023-02-09T09:12:24.390Z,-2.63
2023-02-09T09:14:51.155Z,-2.50
2023-02-09T09:17:17.583Z,-2.51
2023-02-09T09:19:44.037Z,-2.42
2023-02-09T09:22:10.451Z,-2.30
2023-02-09T09:24:40.593Z,-2.20
2023-02-09T09:27:08.862Z,-2.13
2023-02-09T09:29:35.926Z,-2.03
2023-02-09T09:32:02.740Z,-1.92
2023-02-09T09:34:29.294Z,-1.80
2023-02-09T09:36:55.675Z,-1.70
2023-02-09T09:39:22.148Z,-1.53
2023-02-09T09:41:53.094Z,-1.41
2023-02-09T09:44:30.644Z,-1.27
2023-02-09T09:47:01.168Z,-1.06
2023-02-09T09:49:31.386Z,-0.84
2023-02-09T09:52:13.201Z,-0.61
2023-02-09T09:54:41.390Z,-0.41
2023-02-09T09:57:25.030Z,-0.22
2023-02-09T09:59:53.156Z,-0.03
2023-02-09T10:02:29.193Z,0.17
2023-02-09T10:05:06.846Z,0.50
2023-02-09T10:07:34.433Z,0.78
2023-02-09T10:10:10.979Z,0.99
2023-02-09T10:12:40.696Z,1.23
2023-02-09T10:15:32.694Z,1.45
2023-02-09T10:17:59.785Z,1.55
2023-02-09T10:20:45.974Z,1.64
2023-02-09T10:23:37.509Z,1.78
2023-02-09T10:26:04.012Z,2.00
2023-02-09T10:28:37.627Z,2.11
2023-02-09T10:31:11.330Z,2.25
2023-02-09T10:33:42.951Z,2.43
2023-02-09T10:36:24.617Z,2.55
2023-02-09T10:38:52.273Z,2.63
2023-02-09T10:41:21.035Z,2.79
2023-02-09T10:43:52.537Z,2.98
2023-02-09T10:46:20.837Z,3.00
2023-02-09T10:48:47.678Z,3.03
2023-02-09T10:51:17.087Z,3.22
2023-02-09T10:53:55.595Z,3.42
2023-02-09T10:56:25.372Z,3.46
2023-02-09T10:59:03.360Z,3.33
2023-02-09T11:01:41.879Z,3.61
2023-02-09T11:04:21.950Z,3.70
2023-02-09T11:06:54.293Z,3.77
2023-02-09T11:09:28.035Z,3.88
2023-02-09T11:11:54.827Z,3.97
2023-02-09T11:14:21.948Z,4.06
2023-02-09T11:17:15.840Z,4.26
2023-02-09T11:20:05.014Z,4.48
2023-02-09T11:22:49.864Z,4.70
2023-02-09T11:25:49.802Z,4.75
2023-02-09T11:28:42.188Z,4.98
2023-02-09T11:31:24.185Z,5.22
2023-02-09T11:34:05.821Z,5.20
2023-02-09T11:36:41.066Z,5.14
2023-02-09T11:39:25.042Z,5.22
2023-02-09T11:42:29.101Z,5.30
2023-02-09T11:45:02.559Z,5.42
2023-02-09T11:47:42.094Z,5.61
2023-02-09T11:50:10.757Z,5.72
2023-02-09T11:52:48.915Z,5.77
2023-02-09T11:55:27.685Z,5.92
2023-02-09T11:58:15.606Z,6.13
2023-02-09T12:01:13.315Z,6.21
2023-02-09T12:03:55.925Z,6.20
2023-02-09T12:06:24.045Z,6.35
2023-02-09T12:09:08.693Z,6.49
2023-02-09T12:11:50.286Z,6.64
2023-02-09T12:14:47.126Z,6.75
2023-02-09T12:18:12.971Z,6.89
2023-02-09T12:20:56.846Z,7.02
2023-02-09T12:23:43.451Z,7.02
2023-02-09T12:26:12.654Z,7.16
2023-02-09T12:28:40.555Z,7.41
2023-02-09T12:31:14.870Z,7.58
2023-02-09T12:33:47.396Z,7.68
2023-02-09T12:36:13.797Z,7.79
2023-02-09T12:38:56.762Z,8.05
2023-02-09T12:41:40.925Z,8.19
2023-02-09T12:44:10.402Z,8.23
2023-02-09T12:46:52.749Z,8.30
2023-02-09T12:49:21.712Z,8.42
2023-02-09T12:51:51.655Z,8.69
2023-02-09T12:54:54.720Z,8.76
2023-02-09T12:57:22.161Z,8.65
2023-02-09T13:00:09.557Z,8.37
2023-02-09T13:02:49.514Z,8.14
2023-02-09T13:05:23.497Z,8.11
2023-02-09T13:08:05.907Z,8.15
2023-02-09T13:10:41.162Z,8.32
2023-02-09T13:13:19.290Z,8.55
2023-02-09T13:16:00.909Z,8.66
2023-02-09T13:18:37.891Z,8.61
2023-02-09T13:21:15.934Z,8.57
2023-02-09T13:24:03.284Z,8.60
2023-02-09T13:26:34.839Z,8.88
2023-02-09T13:29:22.163Z,9.02
2023-02-09T13:31:54.621Z,9.24
2023-02-09T13:34:30.343Z,9.40
2023-02-09T13:37:18.851Z,9.34
2023-02-09T13:39:45.628Z,8.86
2023-02-09T13:42:19.441Z,8.65
2023-02-09T13:44:46.757Z,8.74
2023-02-09T13:47:15.669Z,8.87
2023-02-09T13:49:43.175Z,9.07
2023-02-09T13:52:16.382Z,9.20
2023-02-09T13:54:43.477Z,9.27
2023-02-09T13:57:31.295Z,9.21
2023-02-09T14:00:08.688Z,9.17
2023-02-09T14:02:49.948Z,9.25
2023-02-09T14:05:43.726Z,9.18
2023-02-09T14:08:13.286Z,9.29
2023-02-09T14:10:41.612Z,9.41
2023-02-09T14:13:21.608Z,9.52
2023-02-09T14:16:09.639Z,9.50
2023-02-09T14:18:54.485Z,9.46
2023-02-09T14:21:20.819Z,9.34
2023-02-09T14:23:56.995Z,9.16
2023-02-09T14:26:27.820Z,8.99
2023-02-09T14:29:17.607Z,9.07
2023-02-09T14:31:47.320Z,9.00
2023-02-09T14:34:23.874Z,9.07
2023-02-09T14:36:53.535Z,9.04
2023-02-09T14:39:21.116Z,9.08
2023-02-09T14:42:17.955Z,9.14
2023-02-09T14:44:56.133Z,9.07
2023-02-09T14:47:34.745Z,8.98
2023-02-09T14:50:02.244Z,8.83
2023-02-09T14:52:31.470Z,8.74
2023-02-09T14:55:01.959Z,8.81
2023-02-09T14:57:32.099Z,8.73
2023-02-09T14:59:58.610Z,8.67
2023-02-09T15:02:27.525Z,8.56
2023-02-09T15:04:54.821Z,8.47
2023-02-09T15:07:34.973Z,8.50
2023-02-09T15:10:06.810Z,8.51
2023-02-09T15:12:33.887Z,8.61
2023-02-09T15:15:01.608Z,8.64
2023-02-09T15:17:30.430Z,8.58
2023-02-09T15:19:58.255Z,8.69
2023-02-09T15:22:24.915Z,8.84
2023-02-09T15:24:54.248Z,9.07
2023-02-09T15:27:28.734Z,9.71
2023-02-09T15:29:58.503Z,10.30
2023-02-09T15:32:26.930Z,11.70
2023-02-09T15:34:54.446Z,14.05
2023-02-09T15:37:25.318Z,16.07
2023-02-09T15:39:56.603Z,17.13
2023-02-09T15:42:41.485Z,17.21
2023-02-09T15:45:41.065Z,17.00
2023-02-09T15:48:08.257Z,16.50
2023-02-09T15:50:39.886Z,15.65
2023-02-09T15:53:14.691Z,14.36
2023-02-09T15:55:42.898Z,13.08
2023-02-09T15:58:15.069Z,12.18
2023-02-09T16:00:42.025Z,11.57
2023-02-09T16:03:15.620Z,10.54
2023-02-09T16:05:42.547Z,9.86
2023-02-09T16:08:18.868Z,9.23
2023-02-09T16:10:46.943Z,8.83
2023-02-09T16:13:18.827Z,9.25
2023-02-09T16:15:45.582Z,9.74
2023-02-09T16:18:12.066Z,9.72
2023-02-09T16:20:46.528Z,8.92
2023-02-09T16:23:20.589Z,7.71
2023-02-09T16:25:49.828Z,6.63
2023-02-09T16:28:16.897Z,5.86
2023-02-09T16:30:50.480Z,5.19
2023-02-09T16:33:17.428Z,4.69
2023-02-09T16:35:44.460Z,4.25
2023-02-09T16:38:19.153Z,3.82
2023-02-09T16:40:46.519Z,3.47
2023-02-09T16:43:13.305Z,3.17
2023-02-09T16:45:43.177Z,2.87
2023-02-09T16:48:25.374Z,2.66
2023-02-09T16:50:53.653Z,2.46
2023-02-09T16:53:36.589Z,2.28
2023-02-09T16:56:09.889Z,2.08
2023-02-09T16:58:37.280Z,1.97
2023-02-09T17:01:04.308Z,1.83
2023-02-09T17:03:39.248Z,1.67
2023-02-09T17:06:06.424Z,1.54
2023-02-09T17:08:34.682Z,1.43
2023-02-09T17:11:04.105Z,1.35
2023-02-09T17:13:31.246Z,1.28
2023-02-09T17:16:06.245Z,1.18
2023-02-09T17:18:38.911Z,1.16
2023-02-09T17:21:20.548Z,1.07
2023-02-09T17:23:47.281Z,0.94
2023-02-09T17:26:14.032Z,0.84
2023-02-09T17:28:42.956Z,0.74
2023-02-09T17:31:23.084Z,0.65
2023-02-09T17:33:56.681Z,0.56
2023-02-09T17:36:27.674Z,0.49
2023-02-09T17:38:56.843Z,0.46
2023-02-09T17:41:31.318Z,0.42
2023-02-09T17:44:20.819Z,0.38
2023-02-09T17:46:53.913Z,0.39
2023-02-09T17:49:20.364Z,0.36
2023-02-09T17:51:47.668Z,0.30
2023-02-09T17:54:16.501Z,0.27
2023-02-09T17:56:43.366Z,0.26
2023-02-09T17:59:10.009Z,0.25
2023-02-09T18:01:42.109Z,0.23
2023-02-09T18:04:16.900Z,0.22
2023-02-09T18:06:43.303Z,0.17
2023-02-09T18:09:14.330Z,0.13
2023-02-09T18:12:19.409Z,0.06
2023-02-09T18:14:45.847Z,-0.04
2023-02-09T18:17:12.322Z,-0.14
2023-02-09T18:19:38.733Z,-0.19
2023-02-09T18:22:05.173Z,-0.25
2023-02-09T18:24:34.140Z,-0.29
2023-02-09T18:27:00.678Z,-0.34
2023-02-09T18:29:29.488Z,-0.37
2023-02-09T18:31:57.797Z,-0.40
2023-02-09T18:34:24.657Z,-0.49
2023-02-09T18:36:51.114Z,-0.52
2023-02-09T18:39:17.569Z,-0.56
2023-02-09T18:41:46.259Z,-0.58
2023-02-09T18:44:12.709Z,-0.62
2023-02-09T18:46:39.167Z,-0.67
2023-02-09T18:49:05.595Z,-0.75
2023-02-09T18:51:32.430Z,-0.80
2023-02-09T18:54:00.164Z,-0.87
2023-02-09T18:56:28.166Z,-0.88
2023-02-09T18:58:54.794Z,-0.88
2023-02-09T19:01:22.997Z,-0.91
2023-02-09T19:03:54.078Z,-0.97
2023-02-09T19:06:21.879Z,-0.97
2023-02-09T19:08:50.318Z,-1.00
2023-02-09T19:11:18.953Z,-1.03
2023-02-09T19:14:05.625Z,-1.09
2023-02-09T19:16:32.070Z,-1.12
2023-02-09T19:18:59.112Z,-1.06
2023-02-09T19:21:25.541Z,-1.03
2023-02-09T19:23:53.900Z,-1.05
2023-02-09T19:26:20.662Z,-1.04
2023-02-09T19:28:48.182Z,-1.04
2023-02-09T19:31:15.863Z,-1.05
2023-02-09T19:33:42.318Z,-1.08
2023-02-09T19:36:09.101Z,-1.11
2023-02-09T19:38:35.521Z,-1.16
2023-02-09T19:41:10.513Z,-1.10
2023-02-09T19:43:39.197Z,-1.06
2023-02-09T19:46:06.329Z,-1.02
2023-02-09T19:48:33.040Z,-0.99
2023-02-09T19:50:59.871Z,-0.99
2023-02-09T19:53:26.875Z,-1.01
2023-02-09T19:55:54.178Z,-1.06
2023-02-09T19:58:21.721Z,-1.10
2023-02-09T20:00:49.189Z,-1.15
2023-02-09T20:03:16.161Z,-1.20
2023-02-09T20:05:43.885Z,-1.25
2023-02-09T20:08:13.644Z,-1.32
2023-02-09T20:10:40.288Z,-1.40
2023-02-09T20:13:07.174Z,-1.49
2023-02-09T20:15:33.582Z,-1.57
2023-02-09T20:18:00.007Z,-1.55
2023-02-09T20:20:26.495Z,-1.54
2023-02-09T20:22:53.762Z,-1.52
2023-02-09T20:25:20.198Z,-1.49
2023-02-09T20:27:48.650Z,-1.44
2023-02-09T20:30:15.157Z,-1.42
2023-02-09T20:32:41.640Z,-1.40
2023-02-09T20:35:10.033Z,-1.38
2023-02-09T20:37:36.738Z,-1.39
2023-02-09T20:40:04.181Z,-1.41
2023-02-09T20:42:48.945Z,-1.41
2023-02-09T20:45:35.933Z,-1.41
2023-02-09T20:48:04.093Z,-1.38
2023-02-09T20:50:32.637Z,-1.37
2023-02-09T20:53:01.331Z,-1.39
2023-02-09T20:55:29.490Z,-1.41
2023-02-09T20:57:56.094Z,-1.43
2023-02-09T21:00:22.646Z,-1.41
2023-02-09T21:02:49.219Z,-1.45
2023-02-09T21:05:16.603Z,-1.48
2023-02-09T21:07:43.158Z,-1.51
2023-02-09T21:10:12.754Z,-1.51
2023-02-09T21:12:39.148Z,-1.52
2023-02-09T21:15:05.861Z,-1.55
2023-02-09T21:17:32.300Z,-1.63
2023-02-09T21:19:58.751Z,-1.71
2023-02-09T21:22:25.124Z,-1.74
2023-02-09T21:24:51.508Z,-1.77
2023-02-09T21:27:17.956Z,-1.86
2023-02-09T21:29:44.393Z,-1.89
2023-02-09T21:32:11.098Z,-1.90
2023-02-09T21:34:37.580Z,-1.85
2023-02-09T21:37:07.683Z,-1.80
2023-02-09T21:39:34.093Z,-1.76
2023-02-09T21:42:19.175Z,-1.73
2023-02-09T21:44:45.558Z,-1.75
2023-02-09T21:47:12.073Z,-1.83
2023-02-09T21:49:38.591Z,-1.90
2023-02-09T21:52:05.402Z,-2.00
2023-02-09T21:54:33.761Z,-2.11
2023-02-09T21:57:03.616Z,-2.17
2023-02-09T21:59:30.065Z,-2.18
2023-02-09T22:01:56.646Z,-2.18
2023-02-09T22:04:23.587Z,-2.18
2023-02-09T22:06:50.047Z,-2.21
2023-02-09T22:09:16.524Z,-2.27
2023-02-09T22:11:42.958Z,-2.42
2023-02-09T22:14:09.370Z,-2.47
2023-02-09T22:16:35.895Z,-2.52
2023-02-09T22:19:02.379Z,-2.53
2023-02-09T22:21:28.813Z,-2.49
2023-02-09T22:23:55.242Z,-2.40
2023-02-09T22:26:21.918Z,-2.33
2023-02-09T22:28:48.690Z,-2.25
2023-02-09T22:31:17.602Z,-2.22
2023-02-09T22:33:44.630Z,-2.23
2023-02-09T22:36:13.799Z,-2.21
2023-02-09T22:38:40.969Z,-2.22
2023-02-09T22:41:21.422Z,-2.21
2023-02-09T22:43:52.398Z,-2.23
2023-02-09T22:46:20.493Z,-2.31
2023-02-09T22:48:52.115Z,-2.41
2023-02-09T22:51:18.868Z,-2.51
2023-02-09T22:53:45.579Z,-2.62
2023-02-09T22:56:12.860Z,-2.64
2023-02-09T22:58:39.356Z,-2.70
2023-02-09T23:01:06.885Z,-2.79
2023-02-09T23:03:34.068Z,-2.90
2023-02-09T23:06:02.264Z,-2.95
2023-02-09T23:08:29.284Z,-2.96
2023-02-09T23:11:02.017Z,-2.97
2023-02-09T23:13:28.544Z,-2.95
2023-02-09T23:15:54.953Z,-2.97
2023-02-09T23:18:21.480Z,-2.96
2023-02-09T23:20:48.985Z,-2.94
2023-02-09T23:23:16.260Z,-2.92
2023-02-09T23:25:42.777Z,-2.86
2023-02-09T23:28:09.210Z,-2.83
2023-02-09T23:30:35.686Z,-2.78
2023-02-09T23:33:02.252Z,-2.77
2023-02-09T23:35:28.732Z,-2.76
2023-02-09T23:37:55.120Z,-2.77
2023-02-09T23:40:21.500Z,-2.81
2023-02-09T23:42:47.879Z,-2.80
2023-02-09T23:45:14.401Z,-2.75
2023-02-09T23:47:40.795Z,-2.70
2023-02-09T23:50:07.292Z,-2.65
2023-02-09T23:52:33.702Z,-2.61
2023-02-09T23:55:00.232Z,-2.61
2023-02-09T23:57:26.650Z,-2.60
2023-02-09T23:59:53.059Z,-2.60
